createdAt,value
2018-05-07T00:03:40.472Z,50.28
2018-05-07T00:08:31.493Z,50.53
2018-05-07T00:13:22.558Z,50.49
2018-05-07T00:18:13.586Z,50.84
2018-05-07T00:23:04.653Z,51.00
2018-05-07T00:27:55.679Z,51.31
2018-05-07T00:32:46.762Z,51.53
2018-05-07T00:37:37.870Z,51.77
2018-05-07T00:42:28.884Z,51.98
2018-05-07T00:47:19.988Z,52.18
2018-05-07T00:52:11.072Z,52.42
2018-05-07T00:57:02.913Z,52.58
2018-05-07T01:01:53.940Z,52.77
2018-05-07T01:06:45.815Z,53.22
2018-05-07T01:11:36.863Z,53.36
2018-05-07T01:16:27.933Z,53.48
2018-05-07T01:21:19.733Z,53.57
2018-05-07T01:26:10.787Z,53.65
2018-05-07T01:31:01.791Z,53.63
2018-05-07T01:35:52.842Z,53.75
2018-05-07T01:40:44.678Z,54.02
2018-05-07T01:45:36.825Z,54.13
2018-05-07T01:50:28.601Z,54.22
2018-05-07T01:55:19.645Z,54.40
2018-05-07T02:00:10.799Z,54.54
2018-05-07T02:05:02.508Z,54.56
2018-05-07T02:09:53.576Z,54.74
2018-05-07T02:14:44.596Z,54.86
2018-05-07T02:19:36.385Z,55.03
2018-05-07T02:24:27.463Z,55.07
2018-05-07T02:29:18.531Z,55.25
2018-05-07T02:34:09.589Z,55.18
2018-05-07T02:39:00.704Z,55.29
2018-05-07T02:43:51.648Z,55.55
2018-05-07T02:48:42.706Z,55.52
2018-05-07T02:53:33.713Z,55.54
2018-05-07T02:58:25.572Z,55.60
2018-05-07T03:03:16.610Z,55.73
2018-05-07T03:08:07.653Z,56.05
2018-05-07T03:12:58.757Z,56.38
2018-05-07T03:17:49.794Z,56.58
2018-05-07T03:22:40.849Z,56.66
2018-05-07T03:27:31.878Z,56.84
2018-05-07T03:32:22.921Z,56.93
2018-05-07T03:37:14.698Z,57.16
2018-05-07T03:42:05.792Z,57.36
2018-05-07T03:46:57.604Z,57.51
2018-05-07T03:51:48.638Z,57.60
2018-05-07T03:56:40.462Z,57.72
2018-05-07T04:01:31.501Z,57.97
2018-05-07T04:06:23.313Z,58.10
2018-05-07T04:11:14.365Z,58.15
2018-05-07T04:16:06.148Z,58.16
2018-05-07T04:21:10.767Z,58.22
2018-05-07T04:26:01.818Z,58.46
2018-05-07T04:30:52.888Z,58.53
2018-05-07T04:35:44.101Z,58.55
2018-05-07T04:40:35.144Z,58.66
2018-05-07T04:45:26.926Z,58.78
2018-05-07T04:50:17.969Z,58.77
2018-05-07T04:55:09.051Z,58.81
2018-05-07T05:00:00.093Z,58.76
2018-05-07T05:04:51.120Z,58.66
2018-05-07T05:09:42.192Z,58.50
2018-05-07T05:14:33.227Z,58.76
2018-05-07T05:19:25.021Z,58.79
2018-05-07T05:24:16.109Z,58.75
2018-05-07T05:29:07.148Z,58.62
2018-05-07T05:33:58.201Z,58.59
2018-05-07T05:38:49.269Z,58.47
2018-05-07T05:43:41.165Z,58.41
2018-05-07T05:48:32.885Z,58.42
2018-05-07T05:53:23.928Z,58.12
2018-05-07T05:58:15.001Z,58.17
2018-05-07T06:03:06.801Z,58.13
2018-05-07T06:07:57.873Z,58.02
2018-05-07T06:12:49.677Z,57.83
2018-05-07T06:17:40.705Z,57.53
2018-05-07T06:22:31.821Z,57.37
2018-05-07T06:27:22.848Z,56.82
2018-05-07T06:32:14.000Z,56.65
2018-05-07T06:37:05.852Z,56.22
2018-05-07T06:41:57.629Z,55.82
2018-05-07T06:46:48.716Z,55.56
2018-05-07T06:51:39.773Z,55.52
2018-05-07T06:56:30.879Z,55.08
2018-05-07T07:01:21.923Z,53.86
2018-05-07T07:06:12.944Z,51.18
2018-05-07T07:11:04.009Z,48.68
2018-05-07T07:15:55.097Z,44.25
2018-05-07T07:20:46.181Z,40.74
2018-05-07T07:25:37.983Z,37.30
2018-05-07T07:30:29.028Z,34.68
2018-05-07T07:35:20.086Z,33.20
2018-05-07T07:40:11.859Z,32.21
2018-05-07T07:45:02.884Z,31.22
2018-05-07T07:49:53.960Z,29.97
2018-05-07T07:54:45.743Z,29.85
2018-05-07T07:59:36.761Z,29.77
2018-05-07T08:04:27.789Z,29.28
2018-05-07T08:09:18.835Z,29.32
2018-05-07T08:14:09.892Z,29.12
2018-05-07T08:19:00.968Z,29.51
2018-05-07T08:23:52.040Z,29.79
2018-05-07T08:28:43.840Z,30.45
2018-05-07T08:33:34.879Z,30.01
2018-05-07T08:38:25.997Z,30.14
2018-05-07T08:43:17.021Z,30.10
2018-05-07T08:48:08.050Z,30.28
2018-05-07T08:52:59.155Z,31.30
2018-05-07T08:57:50.906Z,30.80
2018-05-07T09:02:41.957Z,30.99
2018-05-07T09:07:33.056Z,30.71
2018-05-07T09:12:24.093Z,30.99
2018-05-07T09:17:15.270Z,30.99
2018-05-07T09:22:06.306Z,30.88
2018-05-07T09:26:57.332Z,30.91
2018-05-07T09:31:48.369Z,30.40
2018-05-07T09:36:39.475Z,30.08
2018-05-07T09:41:30.506Z,30.41
2018-05-07T09:46:21.541Z,30.53
2018-05-07T09:51:12.575Z,30.33
2018-05-07T09:56:03.620Z,29.60
2018-05-07T10:00:54.687Z,29.84
2018-05-07T10:05:45.716Z,29.46
2018-05-07T10:10:36.774Z,29.02
2018-05-07T10:15:27.817Z,29.00
2018-05-07T10:20:19.609Z,28.72
2018-05-07T10:25:10.646Z,28.14
2018-05-07T10:30:01.734Z,27.91
2018-05-07T10:34:52.797Z,28.50
2018-05-07T10:39:43.874Z,27.93
2018-05-07T10:44:34.909Z,27.84
2018-05-07T10:49:25.955Z,27.62
2018-05-07T10:54:17.724Z,27.42
2018-05-07T10:59:08.762Z,27.32
2018-05-07T11:04:00.543Z,27.02
2018-05-07T11:08:51.614Z,26.63
2018-05-07T11:13:42.635Z,26.66
2018-05-07T11:18:33.672Z,26.61
2018-05-07T11:23:25.593Z,27.17
2018-05-07T11:28:16.636Z,27.07
2018-05-07T11:33:08.412Z,27.07
2018-05-07T11:37:59.517Z,27.23
2018-05-07T11:42:51.339Z,27.47
2018-05-07T11:47:42.419Z,27.76
2018-05-07T11:52:34.145Z,27.17
2018-05-07T11:57:25.156Z,26.89
2018-05-07T12:02:16.181Z,26.60
2018-05-07T12:07:07.276Z,26.42
2018-05-07T12:11:59.063Z,27.01
2018-05-07T12:16:50.096Z,26.43
2018-05-07T12:21:41.165Z,26.93
2018-05-07T12:26:32.942Z,27.11
2018-05-07T12:31:23.991Z,26.92
2018-05-07T12:36:15.043Z,27.41
2018-05-07T12:41:06.119Z,27.43
2018-05-07T12:45:57.142Z,27.38
2018-05-07T12:50:48.196Z,27.35
2018-05-07T12:55:39.260Z,27.72
2018-05-07T13:00:30.313Z,27.06
2018-05-07T13:05:21.343Z,27.55
2018-05-07T13:10:12.394Z,27.50
2018-05-07T13:15:03.422Z,27.83
2018-05-07T13:19:54.485Z,27.89
2018-05-07T13:24:45.524Z,27.18
2018-05-07T13:29:36.600Z,27.35
2018-05-07T13:34:27.687Z,27.50
2018-05-07T13:39:18.709Z,26.93
2018-05-07T13:44:09.769Z,27.05
2018-05-07T13:49:01.640Z,27.10
2018-05-07T13:53:52.691Z,27.08
2018-05-07T13:58:43.752Z,27.79
2018-05-07T14:03:34.815Z,27.74
2018-05-07T14:08:26.654Z,27.39
2018-05-07T14:13:17.692Z,27.73
2018-05-07T14:18:08.706Z,27.06
2018-05-07T14:22:59.761Z,27.10
2018-05-07T14:27:50.813Z,26.97
2018-05-07T14:32:41.940Z,27.04
2018-05-07T14:37:33.755Z,27.60
2018-05-07T14:42:24.796Z,27.67
2018-05-07T14:47:15.824Z,28.01
2018-05-07T14:52:06.926Z,27.67
2018-05-07T14:56:57.962Z,27.66
2018-05-07T15:01:49.030Z,27.66
2018-05-07T15:06:40.843Z,28.01
2018-05-07T15:11:31.901Z,27.83
2018-05-07T15:16:22.964Z,27.66
2018-05-07T15:21:14.020Z,28.13
2018-05-07T15:26:05.888Z,28.79
2018-05-07T15:30:56.938Z,28.54
2018-05-07T15:35:48.014Z,28.32
2018-05-07T15:40:39.850Z,28.47
2018-05-07T15:45:30.872Z,29.22
2018-05-07T15:50:21.951Z,29.57
2018-05-07T15:55:12.985Z,29.32
2018-05-07T16:00:04.068Z,28.21
2018-05-07T16:04:55.108Z,28.62
2018-05-07T16:09:46.980Z,28.93
2018-05-07T16:14:38.034Z,28.65
2018-05-07T16:19:29.111Z,28.47
2018-05-07T16:24:20.153Z,28.12
2018-05-07T16:29:11.204Z,28.69
2018-05-07T16:34:02.970Z,28.34
2018-05-07T16:38:54.064Z,27.72
2018-05-07T16:43:45.868Z,27.55
2018-05-07T16:48:37.008Z,28.04
2018-05-07T16:53:28.000Z,28.52
2018-05-07T16:58:19.055Z,28.82
2018-05-07T17:03:10.114Z,28.62
2018-05-07T17:08:01.929Z,28.75
2018-05-07T17:12:52.955Z,29.24
2018-05-07T17:17:44.012Z,29.52
2018-05-07T17:22:35.800Z,29.71
2018-05-07T17:27:26.906Z,29.70
2018-05-07T17:32:17.945Z,29.91
2018-05-07T17:37:08.964Z,30.00
2018-05-07T17:42:00.041Z,30.32
2018-05-07T17:47:10.689Z,30.29
2018-05-07T17:52:01.746Z,30.68
2018-05-07T17:56:53.520Z,30.87
2018-05-07T18:01:44.601Z,31.21
2018-05-07T18:06:36.397Z,31.29
2018-05-07T18:11:27.447Z,31.64
2018-05-07T18:16:18.609Z,31.72
2018-05-07T18:21:09.726Z,32.05
2018-05-07T18:26:00.736Z,32.22
2018-05-07T18:30:52.525Z,32.42
2018-05-07T18:35:43.554Z,32.68
2018-05-07T18:40:34.661Z,32.88
2018-05-07T18:45:25.706Z,33.11
2018-05-07T18:50:16.798Z,33.39
2018-05-07T18:55:07.833Z,33.51
2018-05-07T18:59:58.860Z,34.70
2018-05-07T19:04:51.354Z,35.22
2018-05-07T19:09:42.408Z,35.38
2018-05-07T19:14:34.228Z,35.72
2018-05-07T19:19:25.268Z,36.31
2018-05-07T19:24:17.032Z,36.53
2018-05-07T19:29:08.065Z,37.01
2018-05-07T19:33:59.124Z,37.12
2018-05-07T19:38:50.190Z,37.80
2018-05-07T19:43:41.226Z,37.89
2018-05-07T19:48:33.100Z,38.15
2018-05-07T19:53:24.845Z,38.35
2018-05-07T19:58:15.881Z,38.84
2018-05-07T20:03:06.955Z,39.33
2018-05-07T20:07:58.027Z,39.63
2018-05-07T20:12:49.069Z,39.83
2018-05-07T20:17:40.839Z,40.20
2018-05-07T20:22:31.980Z,40.35
2018-05-07T20:27:23.109Z,40.44
2018-05-07T20:32:14.173Z,40.85
2018-05-07T20:37:05.231Z,40.96
2018-05-07T20:41:56.277Z,41.46
2018-05-07T20:46:47.348Z,41.81
2018-05-07T20:51:39.155Z,42.14
2018-05-07T20:56:30.212Z,42.31
2018-05-07T21:01:21.428Z,42.61
2018-05-07T21:06:12.512Z,42.86
2018-05-07T21:11:03.565Z,43.17
2018-05-07T21:15:54.658Z,42.84
2018-05-07T21:20:45.669Z,42.70
2018-05-07T21:25:36.788Z,42.97
2018-05-07T21:30:27.743Z,42.76
2018-05-07T21:35:18.820Z,42.58
2018-05-07T21:40:10.625Z,42.47
2018-05-07T21:45:01.710Z,42.75
2018-05-07T21:49:52.769Z,43.06
2018-05-07T21:54:43.800Z,43.07
2018-05-07T21:59:34.871Z,43.44
2018-05-07T22:04:25.910Z,43.63
2018-05-07T22:09:16.943Z,43.83
2018-05-07T22:14:07.995Z,43.99
2018-05-07T22:18:59.027Z,44.19
2018-05-07T22:23:50.105Z,44.50
2018-05-07T22:28:41.164Z,44.71
2018-05-07T22:33:32.236Z,44.93
2018-05-07T22:38:24.009Z,45.16
2018-05-07T22:43:15.035Z,45.50
2018-05-07T22:48:06.080Z,45.78
2018-05-07T22:52:57.112Z,46.09
2018-05-07T22:57:48.138Z,46.53
2018-05-07T23:02:39.177Z,46.83
2018-05-07T23:07:30.973Z,47.12
2018-05-07T23:12:22.007Z,47.25
2018-05-07T23:17:13.063Z,47.63
2018-05-07T23:22:04.951Z,47.92
2018-05-07T23:26:56.049Z,48.32
2018-05-07T23:31:47.868Z,48.52
2018-05-07T23:36:39.685Z,48.61
2018-05-07T23:41:30.716Z,48.74
2018-05-07T23:46:22.515Z,48.92
2018-05-07T23:51:13.576Z,49.13
2018-05-07T23:56:04.678Z,49.15
